createdAt,value
2024-02-08T01:24:53.854Z,89.80
2024-02-08T01:27:21.811Z,89.70
2024-02-08T01:29:50.466Z,89.70
2024-02-08T01:32:18.761Z,89.60
2024-02-08T01:34:46.237Z,89.80
2024-02-08T01:37:17.023Z,89.70
2024-02-08T01:39:45.337Z,89.70
2024-02-08T01:42:15.657Z,90.00
2024-02-08T01:44:46.873Z,89.80
2024-02-08T01:47:18.950Z,89.70
2024-02-08T01:49:48.659Z,89.40
2024-02-08T01:52:20.176Z,89.50
2024-02-08T01:54:49.930Z,89.40
2024-02-08T01:57:16.999Z,90.10
2024-02-08T01:59:45.654Z,89.90
2024-02-08T02:02:12.867Z,89.60
2024-02-08T02:04:41.725Z,89.40
2024-02-08T02:07:08.687Z,89.10
2024-02-08T02:09:36.432Z,89.20
2024-02-08T02:12:10.848Z,89.40
2024-02-08T02:14:40.310Z,90.00
2024-02-08T02:17:11.622Z,89.80
2024-02-08T02:19:41.558Z,90.20
2024-02-08T02:22:12.101Z,90.20
2024-02-08T02:24:41.505Z,90.40
2024-02-08T02:27:09.844Z,90.90
2024-02-08T02:29:39.777Z,90.90
2024-02-08T02:32:11.550Z,91.10
2024-02-08T02:34:42.913Z,91.30
2024-02-08T02:37:10.165Z,91.40
2024-02-08T02:39:38.010Z,91.90
2024-02-08T02:42:04.990Z,92.50
2024-02-08T02:44:31.879Z,92.70
2024-02-08T02:47:00.548Z,92.90
2024-02-08T02:49:28.907Z,93.00
2024-02-08T02:51:57.654Z,93.20
2024-02-08T02:54:27.509Z,93.10
2024-02-08T02:56:54.379Z,93.30
2024-02-08T02:59:21.862Z,93.30
2024-02-08T03:01:51.689Z,93.20
2024-02-08T03:04:19.356Z,93.10
2024-02-08T03:06:54.291Z,92.90
2024-02-08T03:09:28.629Z,92.80
2024-02-08T03:11:58.878Z,92.60
2024-02-08T03:14:26.412Z,92.90
2024-02-08T03:16:53.389Z,92.80
2024-02-08T03:19:21.863Z,92.60
2024-02-08T03:21:50.755Z,92.60
2024-02-08T03:24:20.801Z,92.40
2024-02-08T03:26:50.772Z,92.00
2024-02-08T03:29:18.018Z,92.40
2024-02-08T03:31:48.717Z,92.60
2024-02-08T03:34:25.092Z,92.00
2024-02-08T03:36:52.420Z,92.40
2024-02-08T03:39:28.977Z,92.30
2024-02-08T03:42:00.200Z,92.80
2024-02-08T03:44:31.539Z,92.80
2024-02-08T03:47:06.818Z,92.50
2024-02-08T03:49:34.102Z,92.30
2024-02-08T03:52:01.145Z,92.70
2024-02-08T03:54:31.687Z,92.80
2024-02-08T03:57:07.162Z,92.70
2024-02-08T03:59:42.394Z,92.80
2024-02-08T04:02:11.353Z,92.30
2024-02-08T04:04:53.969Z,92.30
2024-02-08T04:07:23.167Z,92.70
2024-02-08T04:10:10.737Z,92.60
2024-02-08T04:12:56.256Z,93.20
2024-02-08T04:15:42.520Z,93.20
2024-02-08T04:18:28.169Z,93.00
2024-02-08T04:21:13.549Z,93.20
2024-02-08T04:23:59.337Z,92.90
2024-02-08T04:26:44.838Z,93.60
2024-02-08T04:29:30.063Z,93.60
2024-02-08T04:32:15.681Z,94.10
2024-02-08T04:35:01.511Z,94.10
2024-02-08T04:37:47.342Z,94.40
2024-02-08T04:40:33.726Z,94.40
2024-02-08T04:43:19.274Z,94.40
2024-02-08T04:46:04.820Z,94.40
2024-02-08T04:48:50.409Z,94.70
2024-02-08T04:51:35.829Z,94.50
2024-02-08T04:54:03.634Z,94.80
2024-02-08T04:56:30.604Z,94.70
2024-02-08T04:59:20.019Z,94.70
2024-02-08T05:01:46.889Z,94.70
2024-02-08T05:04:14.269Z,95.10
2024-02-08T05:06:41.391Z,95.00
2024-02-08T05:09:08.901Z,94.80
2024-02-08T05:11:38.288Z,94.50
2024-02-08T05:14:06.088Z,94.60
2024-02-08T05:16:34.225Z,93.90
2024-02-08T05:19:01.214Z,94.30
2024-02-08T05:21:32.721Z,94.20
2024-02-08T05:23:59.978Z,94.20
2024-02-08T05:26:27.149Z,94.50
2024-02-08T05:28:54.494Z,94.90
2024-02-08T05:31:21.499Z,95.10
2024-02-08T05:33:48.575Z,95.10
2024-02-08T05:36:18.957Z,95.20
2024-02-08T05:38:47.082Z,95.30
2024-02-08T05:41:18.673Z,95.20
2024-02-08T05:43:49.301Z,95.40
2024-02-08T05:46:26.806Z,95.50
2024-02-08T05:48:55.348Z,95.50
2024-02-08T05:51:23.644Z,95.80
2024-02-08T05:53:53.190Z,95.80
2024-02-08T05:56:23.115Z,95.70
2024-02-08T05:58:53.247Z,95.90
2024-02-08T06:01:22.373Z,95.70
2024-02-08T06:03:49.690Z,96.10
2024-02-08T06:06:27.688Z,96.10
2024-02-08T06:08:57.709Z,95.60
2024-02-08T06:11:24.836Z,95.40
2024-02-08T06:13:56.487Z,95.30
2024-02-08T06:16:46.790Z,95.80
2024-02-08T06:19:19.239Z,95.20
2024-02-08T06:21:47.193Z,95.20
2024-02-08T06:24:23.785Z,95.20
2024-02-08T06:26:57.852Z,95.20
2024-02-08T06:29:28.360Z,95.00
2024-02-08T06:32:04.241Z,95.20
2024-02-08T06:34:46.728Z,95.50
2024-02-08T06:37:31.415Z,95.30
2024-02-08T06:39:59.396Z,95.30
2024-02-08T06:42:39.404Z,95.30
2024-02-08T06:45:25.457Z,95.70
2024-02-08T06:48:01.814Z,95.30
2024-02-08T06:50:47.352Z,95.10
2024-02-08T06:53:35.327Z,95.30
2024-02-08T06:56:23.060Z,95.20
2024-02-08T06:59:08.482Z,95.40
2024-02-08T07:01:54.095Z,95.70
2024-02-08T07:04:39.841Z,96.10
2024-02-08T07:07:25.504Z,95.90
2024-02-08T07:10:10.919Z,95.10
2024-02-08T07:12:56.677Z,95.40
2024-02-08T07:15:42.209Z,95.80
2024-02-08T07:18:28.098Z,95.90
2024-02-08T07:21:13.881Z,95.70
2024-02-08T07:23:59.419Z,95.80
2024-02-08T07:26:44.938Z,96.60
2024-02-08T07:29:30.273Z,96.50
2024-02-08T07:32:15.820Z,97.00
2024-02-08T07:35:01.402Z,95.40
2024-02-08T07:37:29.144Z,95.80
2024-02-08T07:40:02.970Z,96.20
2024-02-08T07:42:30.807Z,96.00
2024-02-08T07:44:58.993Z,95.70
2024-02-08T07:47:26.657Z,95.60
2024-02-08T07:50:05.816Z,95.30
2024-02-08T07:52:39.750Z,95.20
2024-02-08T07:55:16.397Z,95.20
2024-02-08T07:57:59.348Z,95.30
2024-02-08T08:00:35.688Z,95.50
2024-02-08T08:03:09.154Z,95.40
2024-02-08T08:05:42.960Z,95.80
2024-02-08T08:08:26.792Z,95.80
2024-02-08T08:11:17.100Z,96.00
2024-02-08T08:13:56.253Z,95.40
2024-02-08T08:16:33.121Z,95.60
2024-02-08T08:19:00.571Z,95.50
2024-02-08T08:21:28.377Z,95.60
2024-02-08T08:24:01.815Z,95.60
2024-02-08T08:26:38.673Z,95.60
2024-02-08T08:29:05.868Z,95.90
2024-02-08T08:31:36.912Z,95.50
2024-02-08T08:34:27.345Z,94.60
2024-02-08T08:37:04.885Z,93.60
2024-02-08T08:39:51.358Z,92.50
2024-02-08T08:42:19.187Z,90.80
2024-02-08T08:44:58.499Z,88.60
2024-02-08T08:47:26.158Z,88.40
2024-02-08T08:49:53.369Z,87.60
2024-02-08T08:52:26.936Z,86.90
2024-02-08T08:55:12.945Z,86.70
2024-02-08T08:57:39.991Z,87.30
2024-02-08T09:00:12.820Z,87.20
2024-02-08T09:02:43.745Z,86.00
2024-02-08T09:05:22.599Z,85.40
2024-02-08T09:07:55.042Z,84.40
2024-02-08T09:10:22.232Z,84.50
2024-02-08T09:13:01.133Z,83.10
2024-02-08T09:15:29.424Z,83.60
2024-02-08T09:18:09.698Z,84.50
2024-02-08T09:20:38.827Z,85.30
2024-02-08T09:23:14.835Z,85.20
2024-02-08T09:25:48.709Z,85.20
2024-02-08T09:28:26.488Z,85.70
2024-02-08T09:31:01.100Z,85.80
2024-02-08T09:33:47.370Z,85.60
2024-02-08T09:36:15.745Z,85.70
2024-02-08T09:38:47.730Z,85.00
2024-02-08T09:41:25.933Z,85.70
2024-02-08T09:44:01.503Z,86.20
2024-02-08T09:46:50.017Z,86.70
2024-02-08T09:49:19.746Z,86.90
2024-02-08T09:51:56.116Z,87.50
2024-02-08T09:54:33.735Z,87.80
2024-02-08T09:57:04.857Z,87.30
2024-02-08T09:59:53.023Z,87.20
2024-02-08T10:02:34.206Z,87.00
2024-02-08T10:05:20.987Z,86.70
2024-02-08T10:08:07.660Z,86.40
2024-02-08T10:10:45.071Z,85.70
2024-02-08T10:13:26.738Z,85.40
2024-02-08T10:15:57.496Z,84.30
2024-02-08T10:18:24.822Z,84.70
2024-02-08T10:20:57.450Z,82.40
2024-02-08T10:23:37.317Z,81.80
2024-02-08T10:26:22.247Z,82.30
2024-02-08T10:28:49.072Z,83.00
2024-02-08T10:31:29.601Z,83.50
2024-02-08T10:34:11.099Z,83.90
2024-02-08T10:36:46.770Z,83.10
2024-02-08T10:39:26.271Z,82.50
2024-02-08T10:42:00.585Z,81.40
2024-02-08T10:44:35.835Z,82.40
2024-02-08T10:47:10.360Z,83.30
2024-02-08T10:49:44.237Z,84.00
2024-02-08T10:52:13.640Z,83.00
2024-02-08T10:54:44.906Z,83.30
2024-02-08T10:57:32.241Z,82.20
2024-02-08T11:00:00.605Z,81.10
2024-02-08T11:02:33.745Z,81.00
2024-02-08T11:05:39.313Z,80.40
2024-02-08T11:08:14.805Z,80.90
2024-02-08T11:10:43.857Z,80.50
2024-02-08T11:13:13.016Z,81.30
2024-02-08T11:15:43.922Z,82.00
2024-02-08T11:18:31.152Z,82.40
2024-02-08T11:21:05.730Z,83.10
2024-02-08T11:23:33.627Z,83.20
2024-02-08T11:26:10.169Z,83.60
2024-02-08T11:28:49.069Z,82.30
2024-02-08T11:31:19.553Z,81.50
2024-02-08T11:33:46.882Z,81.00
2024-02-08T11:36:15.945Z,81.00
2024-02-08T11:38:59.451Z,81.20
2024-02-08T11:41:27.471Z,82.30
2024-02-08T11:44:04.987Z,82.20
2024-02-08T11:46:39.731Z,82.50
2024-02-08T11:49:16.686Z,82.00
2024-02-08T11:51:47.475Z,82.60
2024-02-08T11:54:23.912Z,82.80
2024-02-08T11:56:52.337Z,83.80
2024-02-08T11:59:20.176Z,83.80
2024-02-08T12:01:50.042Z,84.50
2024-02-08T12:04:17.663Z,84.80
2024-02-08T12:06:48.039Z,84.50
2024-02-08T12:09:24.010Z,83.50
2024-02-08T12:11:52.815Z,83.10
2024-02-08T12:14:26.588Z,83.60
2024-02-08T12:16:59.249Z,82.80
2024-02-08T12:19:29.510Z,83.00
2024-02-08T12:22:00.033Z,82.70
2024-02-08T12:24:27.645Z,82.40
2024-02-08T12:26:55.508Z,81.90
2024-02-08T12:29:26.235Z,82.10
2024-02-08T12:31:56.131Z,82.40
2024-02-08T12:34:32.906Z,82.40
2024-02-08T12:37:06.642Z,82.50
2024-02-08T12:39:41.462Z,83.00
2024-02-08T12:42:08.467Z,83.30
2024-02-08T12:44:37.957Z,84.10
2024-02-08T12:47:07.542Z,84.80
2024-02-08T12:49:35.750Z,84.70
2024-02-08T12:52:04.552Z,84.50
2024-02-08T12:54:34.612Z,84.70
2024-02-08T12:57:09.310Z,86.00
2024-02-08T12:59:37.886Z,85.90
2024-02-08T13:02:10.483Z,85.90
2024-02-08T13:04:45.413Z,85.70
2024-02-08T13:07:20.130Z,86.40
2024-02-08T13:09:47.945Z,86.20
2024-02-08T13:12:18.336Z,86.60
2024-02-08T13:15:07.683Z,86.70
2024-02-08T13:17:35.461Z,87.10
2024-02-08T13:20:14.525Z,87.30
2024-02-08T13:22:53.570Z,86.90
2024-02-08T13:25:20.908Z,86.90
2024-02-08T13:27:51.543Z,86.50
2024-02-08T13:30:18.845Z,86.60
2024-02-08T13:32:53.849Z,86.90
2024-02-08T13:35:21.339Z,87.10
2024-02-08T13:37:49.954Z,87.00
2024-02-08T13:40:24.194Z,87.40
2024-02-08T13:42:55.735Z,88.10
2024-02-08T13:45:27.390Z,88.70
2024-02-08T13:47:59.099Z,88.60
2024-02-08T13:50:31.998Z,88.80
2024-02-08T13:53:01.971Z,89.00
2024-02-08T13:58:02.311Z,89.10
2024-02-08T14:00:31.683Z,89.80
2024-02-08T14:02:58.813Z,89.50
2024-02-08T14:05:27.006Z,89.90
2024-02-08T14:07:55.671Z,89.80
2024-02-08T14:10:29.270Z,89.30
2024-02-08T14:13:08.086Z,89.90
2024-02-08T14:15:39.661Z,89.90
2024-02-08T14:18:27.168Z,90.30
2024-02-08T14:21:02.396Z,91.00
2024-02-08T14:23:34.356Z,90.70
2024-02-08T14:26:08.286Z,90.70
2024-02-08T14:28:43.768Z,90.90
2024-02-08T14:31:11.304Z,91.40
2024-02-08T14:33:39.045Z,91.20
2024-02-08T14:36:09.774Z,90.90
2024-02-08T14:38:41.986Z,91.00
2024-02-08T14:41:09.849Z,90.90
2024-02-08T14:43:36.780Z,90.70
2024-02-08T14:46:04.160Z,91.00
2024-02-08T14:48:38.927Z,91.30
2024-02-08T14:51:24.450Z,91.30
2024-02-08T14:53:54.886Z,91.60
2024-02-08T14:56:22.109Z,91.80
2024-02-08T14:59:10.950Z,91.80
2024-02-08T15:01:41.048Z,92.00
2024-02-08T15:04:23.302Z,92.50
2024-02-08T15:07:15.156Z,92.70
2024-02-08T15:09:42.936Z,92.90
2024-02-08T15:12:35.969Z,92.70
2024-02-08T15:15:07.351Z,92.30
2024-02-08T15:17:44.481Z,92.40
2024-02-08T15:20:30.578Z,92.50
2024-02-08T15:23:11.086Z,92.40
2024-02-08T15:25:45.293Z,93.00
2024-02-08T15:28:33.456Z,92.90
2024-02-08T15:31:13.504Z,93.20
2024-02-08T15:33:59.325Z,93.60
2024-02-08T15:36:44.825Z,93.90
2024-02-08T15:39:30.673Z,94.50
2024-02-08T15:42:03.009Z,95.00
2024-02-08T15:44:36.938Z,94.80
2024-02-08T15:47:14.100Z,94.90
2024-02-08T15:49:45.267Z,95.10
2024-02-08T15:52:16.623Z,95.80
2024-02-08T15:54:46.250Z,95.80
2024-02-08T15:57:14.644Z,96.20
2024-02-08T15:59:48.008Z,96.30
2024-02-08T16:02:18.747Z,96.60
2024-02-08T16:04:52.337Z,96.80
2024-02-08T16:07:28.749Z,96.70
2024-02-08T16:09:59.930Z,96.80
2024-02-08T16:12:33.253Z,97.00
2024-02-08T16:15:09.194Z,96.80
2024-02-08T16:17:37.656Z,97.20
2024-02-08T16:20:24.690Z,97.20
2024-02-08T16:23:06.832Z,97.40
2024-02-08T16:25:46.373Z,97.30
2024-02-08T16:28:25.057Z,97.20
2024-02-08T16:31:23.236Z,97.50
2024-02-08T16:33:56.181Z,97.50
2024-02-08T16:36:31.411Z,97.80
2024-02-08T16:39:15.772Z,97.80
2024-02-08T16:42:00.875Z,97.70
2024-02-08T16:44:32.110Z,97.40
2024-02-08T16:47:01.287Z,97.30
2024-02-08T16:49:31.889Z,97.50
2024-02-08T16:52:05.536Z,98.00
2024-02-08T16:54:36.256Z,97.90
2024-02-08T16:57:08.769Z,97.70
2024-02-08T16:59:50.159Z,97.70
2024-02-08T17:02:26.509Z,98.20
2024-02-08T17:05:10.750Z,98.30
2024-02-08T17:07:44.389Z,98.50
2024-02-08T17:10:13.987Z,98.60
2024-02-08T17:12:57.920Z,99.10
2024-02-08T17:15:49.830Z,99.20
2024-02-08T17:18:25.583Z,99.90
2024-02-08T17:21:06.746Z,99.60
2024-02-08T17:23:44.392Z,99.80
2024-02-08T17:26:28.001Z,99.90
2024-02-08T17:29:21.294Z,99.90
2024-02-08T17:31:49.138Z,99.90
2024-02-08T17:34:23.471Z,99.90
2024-02-08T17:36:55.552Z,99.90
2024-02-08T17:39:26.555Z,99.80
2024-02-08T17:41:58.348Z,99.90
2024-02-08T17:44:31.359Z,99.90
2024-02-08T17:47:01.381Z,99.70
2024-02-08T17:49:31.247Z,99.40
2024-02-08T17:52:00.936Z,99.20
2024-02-08T17:54:33.235Z,99.50
2024-02-08T17:57:04.002Z,99.70
2024-02-08T17:59:31.518Z,99.80
2024-02-08T18:02:06.142Z,99.70
2024-02-08T18:04:38.090Z,99.40
2024-02-08T18:07:10.578Z,99.90
2024-02-08T18:09:41.184Z,99.80
2024-02-08T18:12:14.710Z,99.70
2024-02-08T18:14:42.806Z,99.60
2024-02-08T18:17:22.862Z,99.70
2024-02-08T18:19:50.460Z,99.50
2024-02-08T18:22:19.599Z,99.80
2024-02-08T18:24:49.843Z,99.90
2024-02-08T18:27:23.342Z,99.90
2024-02-08T18:29:52.440Z,99.90
2024-02-08T18:32:20.385Z,99.90
2024-02-08T18:34:50.830Z,99.90
2024-02-08T18:37:28.049Z,99.90
2024-02-08T18:39:56.211Z,99.90
2024-02-08T18:42:23.814Z,99.70
2024-02-08T18:44:51.480Z,99.70
2024-02-08T18:47:22.454Z,99.20
2024-02-08T18:49:50.712Z,99.30
2024-02-08T18:52:19.631Z,98.90
2024-02-08T18:54:49.101Z,98.90
2024-02-08T18:57:17.498Z,99.10
2024-02-08T18:59:46.574Z,99.00
2024-02-08T19:02:14.011Z,98.90
2024-02-08T19:04:45.922Z,98.90
2024-02-08T19:07:13.288Z,98.80
2024-02-08T19:09:41.871Z,98.80
2024-02-08T19:12:11.090Z,98.80
2024-02-08T19:14:38.379Z,98.60
2024-02-08T19:17:08.880Z,98.60
2024-02-08T19:19:36.100Z,98.40
2024-02-08T19:22:13.754Z,98.50
2024-02-08T19:24:41.854Z,98.60
2024-02-08T19:27:08.882Z,98.70
2024-02-08T19:29:37.519Z,98.70
2024-02-08T19:32:08.683Z,99.00
2024-02-08T19:34:39.020Z,98.80
2024-02-08T19:37:07.776Z,98.50
2024-02-08T19:39:38.624Z,98.40
2024-02-08T19:42:09.114Z,98.30
2024-02-08T19:44:37.279Z,98.40
2024-02-08T19:47:22.498Z,98.70
2024-02-08T19:49:53.027Z,98.50
2024-02-08T19:52:22.391Z,98.50
2024-02-08T19:54:58.200Z,98.50
2024-02-08T19:57:34.436Z,98.00
2024-02-08T20:00:01.674Z,97.90
2024-02-08T20:02:29.473Z,97.90
2024-02-08T20:05:01.025Z,98.00
2024-02-08T20:07:40.579Z,98.00
2024-02-08T20:10:14.885Z,97.90
2024-02-08T20:12:46.593Z,97.80
2024-02-08T20:15:18.062Z,97.70
2024-02-08T20:17:47.114Z,98.00
2024-02-08T20:20:20.559Z,98.00
2024-02-08T20:22:53.344Z,98.00
2024-02-08T20:25:29.066Z,98.00
2024-02-08T20:27:59.937Z,97.80
2024-02-08T20:30:29.523Z,97.80
2024-02-08T20:33:02.489Z,97.60
2024-02-08T20:35:32.721Z,97.60
2024-02-08T20:38:01.323Z,97.70
2024-02-08T20:40:30.036Z,97.00
2024-02-08T20:43:00.550Z,97.00
2024-02-08T20:45:28.580Z,97.00
2024-02-08T20:47:55.612Z,97.20
2024-02-08T20:50:23.012Z,96.70
2024-02-08T20:52:51.072Z,96.70
2024-02-08T20:55:25.522Z,96.70
2024-02-08T20:57:54.105Z,97.00
2024-02-08T21:00:23.873Z,97.00
2024-02-08T21:02:54.344Z,97.10
2024-02-08T21:05:22.517Z,97.00
2024-02-08T21:07:50.810Z,97.00
2024-02-08T21:10:26.986Z,97.10
2024-02-08T21:12:54.241Z,96.70
2024-02-08T21:15:24.407Z,97.00
2024-02-08T21:17:51.651Z,97.00
2024-02-08T21:20:19.082Z,97.10
2024-02-08T21:22:49.240Z,96.80
2024-02-08T21:25:21.384Z,97.10
2024-02-08T21:27:53.918Z,96.90
2024-02-08T21:30:22.163Z,96.70
2024-02-08T21:32:50.163Z,96.50
2024-02-08T21:35:18.257Z,96.60
2024-02-08T21:37:46.942Z,96.60
2024-02-08T21:40:15.407Z,96.40
2024-02-08T21:42:42.429Z,96.10
2024-02-08T21:45:13.770Z,96.30
2024-02-08T21:47:41.162Z,96.00
2024-02-08T21:50:08.920Z,95.90
2024-02-08T21:52:36.752Z,96.10
2024-02-08T21:55:08.110Z,95.70
2024-02-08T21:57:35.688Z,95.90
2024-02-08T22:00:12.425Z,96.00
2024-02-08T22:02:43.730Z,96.10
2024-02-08T22:05:11.587Z,96.10
2024-02-08T22:07:40.040Z,96.20
2024-02-08T22:10:14.687Z,96.40
2024-02-08T22:12:48.007Z,96.50
2024-02-08T22:15:19.148Z,96.20
2024-02-08T22:17:53.148Z,96.00
2024-02-08T22:20:23.246Z,96.00
2024-02-08T22:22:53.864Z,96.00
2024-02-08T22:25:22.722Z,95.80
2024-02-08T22:27:50.052Z,96.20
2024-02-08T22:30:16.908Z,96.60
2024-02-08T22:32:48.108Z,96.50
2024-02-08T22:35:16.986Z,96.50
2024-02-08T22:37:45.048Z,96.00
2024-02-08T22:40:12.526Z,96.00
2024-02-08T22:42:40.244Z,95.70
2024-02-08T22:45:12.965Z,95.70
2024-02-08T22:47:43.735Z,95.80
2024-02-08T22:50:15.860Z,96.20
2024-02-08T22:52:54.243Z,96.30
2024-02-08T22:55:25.626Z,96.50
2024-02-08T22:58:01.767Z,96.40
2024-02-08T23:00:29.003Z,95.80
2024-02-08T23:03:09.288Z,96.20
2024-02-08T23:05:40.907Z,96.30
2024-02-08T23:08:13.004Z,96.60
2024-02-08T23:10:40.847Z,96.20
2024-02-08T23:13:12.236Z,95.90
2024-02-08T23:15:46.809Z,95.50
2024-02-08T23:18:20.534Z,95.70
2024-02-08T23:20:48.659Z,96.00
2024-02-08T23:23:15.743Z,95.90
2024-02-08T23:25:42.790Z,95.70
2024-02-08T23:28:12.706Z,96.00
2024-02-08T23:30:45.573Z,96.10
2024-02-08T23:33:14.809Z,96.20
2024-02-08T23:35:41.947Z,95.80
2024-02-08T23:38:09.098Z,95.60
2024-02-08T23:40:36.247Z,95.90
2024-02-08T23:43:08.877Z,95.90
2024-02-08T23:45:40.584Z,95.60
2024-02-08T23:48:10.078Z,95.80
2024-02-08T23:50:37.711Z,96.00
2024-02-08T23:53:05.640Z,96.00
2024-02-08T23:55:36.590Z,95.20
2024-02-08T23:58:05.614Z,95.30
